Time;durP1;ratioP1;P1;durP2;ratioP2;P2;SDS_P1;SDS_P2;PMS_P1;PMS_P2;Temp;Humidity;BMP_temperature;BMP_pressure;BME280_temperature;BME280_humidity;BME280_pressure;Samples;Min_cycle;Max_cycle;Signal;HPM_P1;HPM_P2
2022/07/05 00:02:14;;;;;;;0.60;0.60;;;18.40;99.90;;;;;;5100928;28;20280;-67
2022/07/05 00:04:41;;;;;;;0.55;0.55;;;18.20;99.90;;;;;;5101132;28;20244;-66
2022/07/05 00:07:21;;;;;;;0.50;0.50;;;18.30;99.90;;;;;;5099640;28;20257;-66
2022/07/05 00:09:52;;;;;;;0.50;0.50;;;18.30;99.90;;;;;;5096526;28;20260;-66
2022/07/05 00:12:20;;;;;;;0.70;0.70;;;18.30;99.90;;;;;;5104427;28;20276;-66
2022/07/05 00:14:49;;;;;;;0.60;0.60;;;18.20;99.90;;;;;;5095996;28;20198;-65
2022/07/05 00:17:16;;;;;;;0.60;0.60;;;18.20;99.90;;;;;;5104191;28;20617;-67
2022/07/05 00:19:43;;;;;;;0.65;0.65;;;18.10;99.90;;;;;;5110392;28;20234;-66
2022/07/05 00:22:10;;;;;;;0.70;0.70;;;18.00;99.90;;;;;;5105323;28;20561;-67
2022/07/05 00:24:37;;;;;;;0.60;0.60;;;17.90;99.90;;;;;;5103798;28;20210;-67
2022/07/05 00:27:05;;;;;;;2.00;0.70;;;17.80;99.90;;;;;;5107563;28;20221;-67
2022/07/05 00:29:32;;;;;;;0.50;0.50;;;17.80;99.90;;;;;;5095630;28;20258;-67
2022/07/05 00:31:59;;;;;;;0.70;0.70;;;17.80;99.90;;;;;;5107426;28;20218;-66
2022/07/05 00:34:26;;;;;;;0.70;0.70;;;17.80;99.90;;;;;;5114451;28;20281;-67
2022/07/05 00:36:53;;;;;;;0.63;0.63;;;17.80;99.90;;;;;;5100918;28;20265;-66
2022/07/05 00:39:20;;;;;;;0.57;0.52;;;17.80;99.90;;;;;;5100433;28;20836;-66
2022/07/05 00:41:47;;;;;;;0.47;0.47;;;17.80;99.90;;;;;;5103843;28;20270;-66
2022/07/05 00:44:15;;;;;;;0.60;0.60;;;17.80;99.90;;;;;;5101101;28;20682;-66
2022/07/05 00:46:44;;;;;;;0.70;0.70;;;17.80;99.90;;;;;;5105737;28;20213;-65
2022/07/05 00:49:11;;;;;;;0.43;0.43;;;17.80;99.90;;;;;;5102542;28;20226;-67
2022/07/05 00:51:40;;;;;;;0.57;0.57;;;17.80;99.90;;;;;;5112717;28;20226;-67
2022/07/05 00:54:08;;;;;;;0.60;0.60;;;17.80;99.90;;;;;;5102139;28;20247;-67
2022/07/05 00:56:35;;;;;;;0.70;0.70;;;17.70;99.90;;;;;;5104219;28;20202;-67
2022/07/05 00:59:01;;;;;;;0.90;0.67;;;17.60;99.90;;;;;;5107081;28;20205;-66
2022/07/05 01:01:30;;;;;;;0.60;0.60;;;17.50;99.90;;;;;;5101286;28;20591;-65
2022/07/05 01:03:57;;;;;;;0.40;0.40;;;17.50;99.90;;;;;;5107434;28;20612;-69
2022/07/05 01:06:24;;;;;;;0.70;0.60;;;17.40;99.90;;;;;;5112457;28;20193;-66
2022/07/05 01:08:52;;;;;;;0.70;0.70;;;17.30;99.90;;;;;;5104733;28;20328;-66
2022/07/05 01:11:18;;;;;;;0.63;0.63;;;17.20;99.90;;;;;;5107348;28;20694;-67
2022/07/05 01:13:45;;;;;;;0.63;0.63;;;17.10;99.90;;;;;;5100328;28;20327;-67
2022/07/05 01:16:14;;;;;;;0.60;0.60;;;17.20;99.90;;;;;;5106968;28;20608;-68
2022/07/05 01:18:43;;;;;;;0.70;0.70;;;17.20;99.90;;;;;;5100696;28;20223;-67
2022/07/05 01:21:14;;;;;;;0.55;0.55;;;17.20;99.90;;;;;;5108931;28;20283;-66
2022/07/05 01:23:43;;;;;;;0.60;0.60;;;17.10;99.90;;;;;;5106489;28;20202;-67
2022/07/05 01:26:10;;;;;;;0.60;0.60;;;17.10;99.90;;;;;;5106265;28;20285;-66
2022/07/05 01:28:37;;;;;;;0.50;0.50;;;17.10;99.90;;;;;;5111407;28;20222;-67
2022/07/05 01:31:04;;;;;;;0.55;0.55;;;17.20;99.90;;;;;;5099762;28;20205;-65
2022/07/05 01:33:32;;;;;;;0.43;0.43;;;17.20;99.90;;;;;;5106773;28;20537;-67
2022/07/05 01:35:59;;;;;;;0.40;0.40;;;17.30;99.90;;;;;;5103312;28;20199;-67
2022/07/05 01:38:27;;;;;;;0.70;0.70;;;17.40;99.90;;;;;;5103201;28;20246;-67
2022/07/05 01:40:55;;;;;;;0.50;0.50;;;17.40;99.90;;;;;;5104191;28;20338;-67
2022/07/05 01:46:06;;;;;;;0.60;0.60;;;17.20;99.90;;;;;;5057459;28;20584;-67
2022/07/05 01:48:35;;;;;;;0.52;0.52;;;17.20;99.90;;;;;;5059405;28;20617;-65
2022/07/05 01:51:05;;;;;;;0.47;0.47;;;17.20;99.90;;;;;;5060408;28;20649;-66
2022/07/05 01:53:34;;;;;;;0.50;0.50;;;17.10;99.90;;;;;;5061877;28;20220;-66
2022/07/05 01:56:04;;;;;;;0.50;0.50;;;17.10;99.90;;;;;;5060008;28;20204;-66
2022/07/05 01:58:31;;;;;;;0.68;0.68;;;17.10;99.90;;;;;;5059440;28;20785;-67
2022/07/05 02:00:59;;;;;;;0.70;0.70;;;17.10;99.90;;;;;;5060738;28;20223;-68
2022/07/05 02:03:28;;;;;;;0.65;0.65;;;17.10;99.90;;;;;;5060170;28;20215;-69
2022/07/05 02:05:55;;;;;;;0.55;0.55;;;17.10;99.90;;;;;;5054386;28;20303;-68
2022/07/05 02:08:29;;;;;;;0.52;0.52;;;17.00;99.90;;;;;;5062959;28;20338;-68
2022/07/05 02:10:55;;;;;;;0.60;0.50;;;17.10;99.90;;;;;;5061451;28;20196;-67
2022/07/05 02:13:24;;;;;;;0.60;0.60;;;17.00;99.90;;;;;;5060163;28;20302;-68
2022/07/05 02:15:51;;;;;;;0.60;0.60;;;16.90;99.90;;;;;;5063793;28;20204;-67
2022/07/05 02:18:18;;;;;;;0.60;0.60;;;16.90;99.90;;;;;;5103623;28;20688;-68
2022/07/05 02:20:45;;;;;;;0.70;0.70;;;16.80;99.90;;;;;;5102868;28;20293;-67
2022/07/05 02:23:12;;;;;;;0.73;0.73;;;16.70;99.90;;;;;;5102682;28;20285;-66
2022/07/05 02:25:39;;;;;;;1.05;0.60;;;16.60;99.90;;;;;;5111288;28;20587;-68
2022/07/05 02:28:06;;;;;;;0.70;0.70;;;16.60;99.90;;;;;;5102678;28;20638;-68
2022/07/05 02:30:34;;;;;;;0.60;0.60;;;16.60;99.90;;;;;;5100004;28;20301;-67
2022/07/05 02:33:01;;;;;;;0.60;0.60;;;16.50;99.90;;;;;;5103135;28;20289;-67
2022/07/05 02:35:28;;;;;;;0.93;0.63;;;16.30;99.90;;;;;;5106816;28;20226;-66
2022/07/05 02:37:54;;;;;;;0.77;0.70;;;16.20;99.90;;;;;;5098886;28;20225;-67
2022/07/05 02:40:22;;;;;;;0.60;0.60;;;16.10;99.90;;;;;;5105984;28;20284;-68
2022/07/05 02:42:49;;;;;;;0.60;0.60;;;16.20;99.90;;;;;;5098365;28;20290;-67
2022/07/05 02:45:16;;;;;;;2.13;0.80;;;16.10;99.90;;;;;;5105677;28;20194;-67
2022/07/05 02:47:44;;;;;;;0.65;0.65;;;16.00;99.90;;;;;;5105464;28;20313;-67
2022/07/05 02:50:12;;;;;;;0.60;0.60;;;16.10;99.90;;;;;;5105629;28;20235;-67
2022/07/05 02:52:39;;;;;;;0.65;0.65;;;16.10;99.90;;;;;;5112635;28;20213;-67
2022/07/05 02:55:06;;;;;;;0.80;0.80;;;16.00;99.90;;;;;;5099921;28;20288;-66
2022/07/05 03:00:14;;;;;;;0.47;0.47;;;15.90;99.90;;;;;;5008974;28;20217;-62
2022/07/05 03:02:41;;;;;;;0.43;0.43;;;15.90;99.90;;;;;;5010923;28;20622;-62
2022/07/05 03:05:09;;;;;;;0.73;0.73;;;15.90;99.90;;;;;;5011282;28;20683;-64
2022/07/05 03:07:36;;;;;;;0.60;0.60;;;15.80;99.90;;;;;;5010646;28;20217;-63
2022/07/05 03:10:04;;;;;;;0.85;0.85;;;15.80;99.90;;;;;;5003820;28;20308;-64
2022/07/05 03:12:31;;;;;;;0.55;0.50;;;15.70;99.90;;;;;;5012783;28;20201;-64
2022/07/05 03:14:58;;;;;;;0.97;0.57;;;15.60;99.90;;;;;;5012492;28;20229;-64
2022/07/05 03:17:24;;;;;;;0.70;0.67;;;15.60;99.90;;;;;;5012334;28;20202;-63
2022/07/05 03:19:51;;;;;;;0.60;0.60;;;15.50;99.90;;;;;;5003764;28;20268;-63
2022/07/05 03:22:19;;;;;;;0.60;0.60;;;15.40;99.90;;;;;;5004297;28;20209;-63
2022/07/05 03:24:46;;;;;;;0.60;0.60;;;15.30;99.90;;;;;;5012117;28;20244;-64
2022/07/05 03:27:13;;;;;;;0.77;0.77;;;15.30;99.90;;;;;;5011957;28;20233;-64
2022/07/05 03:29:40;;;;;;;0.80;0.80;;;15.30;99.90;;;;;;5011114;28;20229;-63
2022/07/05 03:32:08;;;;;;;0.70;0.70;;;15.40;99.90;;;;;;5012216;28;20524;-63
2022/07/05 03:34:35;;;;;;;0.47;0.47;;;15.40;99.90;;;;;;5012223;28;20292;-65
2022/07/05 03:37:01;;;;;;;0.50;0.50;;;15.50;99.90;;;;;;5012561;28;20212;-63
2022/07/05 03:39:30;;;;;;;0.60;0.60;;;15.50;99.90;;;;;;5012062;28;20623;-63
2022/07/05 03:41:57;;;;;;;1.10;0.60;;;15.60;99.90;;;;;;5012772;28;20292;-63
2022/07/05 03:44:24;;;;;;;0.87;0.87;;;15.60;99.90;;;;;;5014568;28;20244;-65
2022/07/05 03:46:50;;;;;;;0.88;0.88;;;15.70;99.90;;;;;;5017673;28;20205;-63
2022/07/05 03:49:17;;;;;;;0.95;0.73;;;15.80;99.90;;;;;;5028539;28;20225;-64
2022/07/05 03:51:44;;;;;;;1.00;1.00;;;15.80;99.90;;;;;;5027054;28;20205;-64
2022/07/05 03:54:11;;;;;;;0.80;0.80;;;15.80;99.90;;;;;;5018868;28;20236;-64
2022/07/05 03:56:39;;;;;;;0.97;0.97;;;15.90;99.90;;;;;;5009066;28;20210;-62
2022/07/05 03:59:06;;;;;;;0.82;0.82;;;16.00;99.90;;;;;;5012723;28;20323;-63
2022/07/05 04:01:33;;;;;;;0.60;0.60;;;16.00;99.90;;;;;;5012296;28;20229;-63
2022/07/05 04:04:00;;;;;;;0.70;0.70;;;16.00;99.90;;;;;;5004581;28;20739;-64
2022/07/05 04:06:27;;;;;;;0.70;0.70;;;16.00;99.90;;;;;;5011926;28;20208;-63
2022/07/05 04:08:54;;;;;;;0.73;0.73;;;15.90;99.90;;;;;;5010165;28;20264;-63
2022/07/05 04:11:21;;;;;;;0.63;0.63;;;15.90;99.90;;;;;;5011269;28;20284;-62
2022/07/05 04:13:49;;;;;;;0.70;0.70;;;15.90;99.90;;;;;;5011435;28;20715;-62
2022/07/05 04:16:16;;;;;;;0.63;0.63;;;15.90;99.90;;;;;;5011761;28;20284;-62
2022/07/05 04:18:43;;;;;;;0.90;0.90;;;15.90;99.90;;;;;;5011158;28;20228;-62
2022/07/05 04:21:10;;;;;;;0.80;0.80;;;16.00;99.90;;;;;;5011121;28;20205;-63
2022/07/05 04:23:37;;;;;;;0.70;0.70;;;16.00;99.90;;;;;;5011342;28;20288;-63
2022/07/05 04:26:04;;;;;;;0.80;0.80;;;16.00;99.90;;;;;;5011640;28;20548;-63
2022/07/05 04:28:31;;;;;;;0.73;0.73;;;16.00;99.90;;;;;;5010707;28;20707;-63
2022/07/05 04:30:59;;;;;;;0.70;0.70;;;16.00;99.90;;;;;;5013161;28;20301;-64
2022/07/05 04:33:26;;;;;;;0.70;0.70;;;16.10;99.90;;;;;;5013472;28;20204;-63
2022/07/05 04:35:53;;;;;;;0.70;0.70;;;16.10;99.90;;;;;;5013283;28;20722;-63
2022/07/05 04:38:21;;;;;;;0.73;0.73;;;16.00;99.90;;;;;;5011847;28;20240;-63
2022/07/05 04:40:48;;;;;;;0.77;0.77;;;16.00;99.90;;;;;;5011383;28;20289;-64
2022/07/05 04:43:15;;;;;;;0.80;0.80;;;16.10;99.90;;;;;;5011821;28;20294;-63
2022/07/05 04:45:41;;;;;;;0.75;0.75;;;16.10;99.90;;;;;;5011722;28;20205;-63
2022/07/05 04:48:10;;;;;;;0.60;0.60;;;16.20;99.90;;;;;;5010874;28;20229;-62
2022/07/05 04:50:37;;;;;;;0.70;0.70;;;16.10;99.90;;;;;;5010978;28;20251;-63
2022/07/05 04:53:04;;;;;;;0.90;0.90;;;16.10;99.90;;;;;;5009497;28;20228;-63
2022/07/05 04:55:30;;;;;;;0.77;0.77;;;16.20;99.90;;;;;;5001230;28;20242;-62
2022/07/05 04:57:57;;;;;;;0.70;0.70;;;16.10;99.90;;;;;;5006149;28;20230;-63
2022/07/05 05:00:24;;;;;;;0.77;0.77;;;16.10;99.90;;;;;;5015973;28;20258;-63
2022/07/05 05:02:51;;;;;;;0.60;0.60;;;16.10;99.90;;;;;;5014398;28;20284;-63
2022/07/05 05:05:19;;;;;;;0.60;0.60;;;16.20;99.90;;;;;;5018158;28;20659;-64
2022/07/05 05:07:46;;;;;;;0.80;0.80;;;16.30;99.90;;;;;;5019869;28;20493;-63
2022/07/05 05:10:13;;;;;;;0.80;0.80;;;16.30;99.90;;;;;;5019397;28;20759;-63
2022/07/05 05:12:40;;;;;;;0.70;0.70;;;16.40;99.90;;;;;;5026797;28;20213;-63
2022/07/05 05:15:09;;;;;;;0.60;0.60;;;16.60;99.90;;;;;;5020304;28;20201;-64
2022/07/05 05:17:38;;;;;;;0.67;0.67;;;16.70;99.90;;;;;;5026446;28;20220;-64
2022/07/05 05:20:07;;;;;;;0.80;0.80;;;16.80;99.90;;;;;;5020119;28;20201;-65
2022/07/05 05:22:35;;;;;;;0.80;0.80;;;17.00;99.90;;;;;;5023721;28;20251;-64
2022/07/05 05:25:02;;;;;;;0.70;0.70;;;17.20;99.90;;;;;;5019832;28;20201;-64
2022/07/05 05:27:29;;;;;;;0.90;0.90;;;17.50;99.90;;;;;;5019251;28;20229;-63
2022/07/05 05:29:56;;;;;;;0.63;0.63;;;17.70;99.90;;;;;;5022212;28;20260;-64
2022/07/05 05:32:23;;;;;;;0.77;0.73;;;17.80;99.90;;;;;;5017595;28;20306;-63
2022/07/05 05:34:49;;;;;;;0.77;0.77;;;18.10;99.90;;;;;;5026507;28;20291;-65
2022/07/05 05:37:16;;;;;;;0.90;0.90;;;18.20;99.90;;;;;;5024237;28;20271;-65
2022/07/05 05:39:45;;;;;;;0.70;0.70;;;18.30;99.90;;;;;;5025926;28;20224;-63
2022/07/05 05:42:11;;;;;;;0.77;0.77;;;18.50;99.90;;;;;;5020727;28;20255;-63
2022/07/05 05:44:38;;;;;;;0.70;0.70;;;18.70;99.90;;;;;;5018671;28;20264;-65
2022/07/05 05:47:05;;;;;;;0.63;0.63;;;18.90;99.90;;;;;;5026219;28;20283;-65
2022/07/05 05:49:33;;;;;;;0.52;0.52;;;19.00;99.90;;;;;;5017914;28;20308;-65
2022/07/05 05:52:01;;;;;;;1.17;0.90;;;19.20;99.90;;;;;;5019078;28;20244;-64
2022/07/05 05:54:27;;;;;;;0.63;0.63;;;19.40;99.90;;;;;;5028276;28;20662;-64
2022/07/05 05:56:56;;;;;;;1.17;0.77;;;19.60;99.90;;;;;;5024151;28;20266;-65
2022/07/05 05:59:23;;;;;;;0.70;0.70;;;19.80;99.90;;;;;;5017644;28;20236;-65
2022/07/05 06:01:50;;;;;;;0.70;0.70;;;20.00;99.90;;;;;;5022400;28;20614;-64
2022/07/05 06:04:17;;;;;;;2.45;0.77;;;20.20;99.90;;;;;;5019407;28;20292;-64
2022/07/05 06:06:44;;;;;;;0.80;0.80;;;20.40;99.90;;;;;;5020673;28;20236;-64
2022/07/05 06:09:11;;;;;;;0.90;0.60;;;20.50;99.90;;;;;;5024298;28;20247;-64
2022/07/05 06:11:38;;;;;;;0.70;0.70;;;20.60;99.90;;;;;;5028702;28;20221;-65
2022/07/05 06:14:06;;;;;;;0.90;0.90;;;20.70;99.90;;;;;;5027901;28;20287;-63
2022/07/05 06:16:33;;;;;;;0.73;0.73;;;20.90;99.90;;;;;;5025689;28;20197;-64
2022/07/05 06:19:00;;;;;;;0.80;0.80;;;21.00;99.90;;;;;;5025593;28;20255;-65
2022/07/05 06:21:27;;;;;;;0.77;0.77;;;21.10;99.90;;;;;;5021619;28;20197;-65
2022/07/05 06:23:54;;;;;;;0.68;0.68;;;21.30;99.90;;;;;;5020503;28;20209;-65
2022/07/05 06:26:20;;;;;;;1.10;0.80;;;21.30;99.90;;;;;;5015955;28;20201;-65
2022/07/05 06:28:49;;;;;;;1.17;0.98;;;21.10;99.90;;;;;;5016318;28;20605;-65
2022/07/05 06:31:17;;;;;;;0.80;0.80;;;21.30;99.90;;;;;;5018280;28;20268;-65
2022/07/05 06:33:44;;;;;;;0.90;0.90;;;21.40;99.90;;;;;;5017593;28;20208;-65
2022/07/05 06:36:11;;;;;;;0.80;0.80;;;21.40;99.90;;;;;;5019342;28;20200;-64
2022/07/05 06:38:38;;;;;;;0.70;0.70;;;21.40;99.90;;;;;;5017929;28;20705;-64
2022/07/05 06:41:05;;;;;;;1.05;0.95;;;21.60;99.90;;;;;;5026577;28;20559;-65
2022/07/05 06:43:32;;;;;;;0.57;0.57;;;21.70;99.90;;;;;;5025974;28;20203;-65
2022/07/05 06:45:59;;;;;;;0.70;0.70;;;21.80;99.90;;;;;;5016602;28;20296;-64
2022/07/05 06:48:28;;;;;;;0.70;0.70;;;21.80;99.90;;;;;;5018723;28;20736;-65
2022/07/05 06:50:54;;;;;;;0.90;0.90;;;21.90;99.90;;;;;;5017372;28;20225;-62
2022/07/05 06:53:21;;;;;;;0.88;0.88;;;21.90;99.90;;;;;;5013744;28;20317;-65
2022/07/05 06:55:48;;;;;;;0.80;0.80;;;22.00;99.90;;;;;;5012943;28;20206;-65
2022/07/05 06:58:15;;;;;;;0.80;0.80;;;21.90;99.90;;;;;;5011887;28;20579;-63
2022/07/05 07:00:43;;;;;;;0.90;0.90;;;22.10;99.90;;;;;;5012495;28;20197;-64
2022/07/05 07:03:10;;;;;;;0.68;0.68;;;22.20;99.90;;;;;;5011839;28;20230;-64
2022/07/05 07:05:38;;;;;;;0.70;0.70;;;22.30;99.90;;;;;;5011655;28;20236;-63
2022/07/05 07:10:50;;;;;;;1.15;0.80;;;22.40;99.90;;;;;;5013352;28;20347;-65
2022/07/05 07:13:17;;;;;;;0.73;0.73;;;22.40;99.90;;;;;;5013585;28;20236;-64
2022/07/05 07:15:43;;;;;;;0.70;0.70;;;22.60;99.90;;;;;;5013719;28;20205;-64
2022/07/05 07:18:10;;;;;;;0.70;0.70;;;22.60;99.90;;;;;;5012466;28;20229;-65
2022/07/05 07:20:39;;;;;;;0.70;0.70;;;22.70;99.90;;;;;;5013330;28;20206;-64
2022/07/05 07:23:05;;;;;;;0.63;0.63;;;22.80;99.90;;;;;;5014697;28;20279;-65
2022/07/05 07:25:33;;;;;;;0.70;0.70;;;22.80;99.90;;;;;;5014266;28;20664;-64
2022/07/05 07:27:59;;;;;;;0.80;0.80;;;22.80;99.90;;;;;;5015063;28;20559;-63
2022/07/05 07:30:28;;;;;;;0.70;0.68;;;22.90;99.90;;;;;;5016494;28;20285;-65
2022/07/05 07:32:56;;;;;;;0.80;0.80;;;23.00;99.90;;;;;;5016345;28;20293;-66
2022/07/05 07:35:23;;;;;;;0.73;0.73;;;23.10;99.90;;;;;;5017757;28;20666;-63
2022/07/05 07:37:51;;;;;;;1.00;0.98;;;23.10;99.90;;;;;;5016169;28;20589;-64
2022/07/05 07:40:18;;;;;;;0.73;0.73;;;23.00;99.90;;;;;;5013861;28;20648;-65
2022/07/05 07:42:45;;;;;;;0.80;0.80;;;22.90;99.90;;;;;;5012917;28;20201;-64
2022/07/05 07:45:12;;;;;;;0.85;0.85;;;22.90;99.90;;;;;;5012896;28;20201;-65
2022/07/05 07:47:39;;;;;;;0.85;0.85;;;22.90;99.90;;;;;;5012307;28;20209;-64
2022/07/05 07:50:07;;;;;;;2.95;0.90;;;23.10;99.90;;;;;;5014623;28;20201;-63
2022/07/05 07:52:34;;;;;;;1.10;1.10;;;23.20;99.90;;;;;;5015420;28;20273;-64
2022/07/05 07:55:02;;;;;;;0.75;0.75;;;23.10;99.90;;;;;;5012312;28;20577;-64
2022/07/05 07:57:29;;;;;;;0.65;0.65;;;22.80;99.90;;;;;;5013279;28;20217;-64
2022/07/05 07:59:57;;;;;;;0.93;0.90;;;22.80;99.90;;;;;;5011716;28;20287;-65
2022/07/05 08:02:24;;;;;;;0.80;0.80;;;23.00;99.90;;;;;;5013074;28;20288;-64
2022/07/05 08:04:51;;;;;;;1.67;0.90;;;23.20;99.90;;;;;;5010337;28;20205;-64
2022/07/05 08:07:19;;;;;;;0.70;0.70;;;23.40;99.90;;;;;;5014331;28;20229;-63
2022/07/05 08:09:46;;;;;;;0.98;0.98;;;23.60;99.90;;;;;;5012402;28;20667;-64
2022/07/05 08:12:14;;;;;;;0.70;0.70;;;23.50;99.90;;;;;;5012944;28;20308;-63
2022/07/05 08:14:41;;;;;;;0.70;0.70;;;23.50;99.90;;;;;;5014241;28;20304;-64
2022/07/05 08:17:08;;;;;;;0.77;0.77;;;23.70;99.90;;;;;;5013575;28;20289;-64
2022/07/05 08:22:20;;;;;;;0.82;0.82;;;24.00;99.90;;;;;;5007191;28;20223;-64
2022/07/05 08:24:47;;;;;;;1.00;1.00;;;24.10;99.90;;;;;;5012806;28;20273;-65
2022/07/05 08:27:16;;;;;;;0.80;0.80;;;24.00;99.90;;;;;;5011521;28;20283;-64
2022/07/05 08:29:43;;;;;;;0.70;0.70;;;24.20;99.90;;;;;;5011711;28;20268;-64
2022/07/05 08:32:11;;;;;;;0.68;0.68;;;24.10;99.90;;;;;;5012002;28;20229;-64
2022/07/05 08:34:37;;;;;;;1.52;1.20;;;24.20;99.90;;;;;;5012923;28;20205;-64
2022/07/05 08:37:05;;;;;;;0.90;0.90;;;24.20;99.90;;;;;;5014599;28;20221;-64
2022/07/05 08:39:32;;;;;;;1.90;0.90;;;24.20;99.90;;;;;;5011489;28;20763;-66
2022/07/05 08:42:00;;;;;;;0.70;0.70;;;24.30;99.90;;;;;;5013895;28;20280;-64
2022/07/05 08:44:29;;;;;;;0.90;0.90;;;24.10;99.90;;;;;;5010906;28;20239;-63
2022/07/05 08:46:58;;;;;;;1.25;1.15;;;24.30;99.90;;;;;;5012232;28;20209;-64
2022/07/05 08:49:26;;;;;;;1.08;1.08;;;24.20;99.90;;;;;;5011354;28;20225;-66
2022/07/05 08:51:55;;;;;;;0.90;0.90;;;24.20;99.90;;;;;;5011614;28;20229;-64
2022/07/05 08:54:23;;;;;;;1.00;0.90;;;24.20;99.90;;;;;;5011602;28;20216;-64
2022/07/05 08:56:50;;;;;;;0.80;0.80;;;24.60;99.90;;;;;;5011415;28;20279;-64
2022/07/05 08:59:17;;;;;;;1.30;1.10;;;24.90;99.90;;;;;;5060172;22;20263;-66
2022/07/05 09:01:47;;;;;;;0.90;0.90;;;24.80;99.90;;;;;;5051474;28;20729;-67
2022/07/05 09:04:17;;;;;;;0.88;0.88;;;24.70;99.90;;;;;;5051213;28;20204;-66
2022/07/05 09:06:47;;;;;;;0.80;0.80;;;24.40;99.90;;;;;;5054467;28;20250;-66
2022/07/05 09:09:19;;;;;;;1.00;0.90;;;24.60;99.90;;;;;;5050087;28;20216;-65
2022/07/05 09:11:47;;;;;;;0.73;0.73;;;25.00;99.90;;;;;;5053119;28;20295;-66
2022/07/05 09:14:21;;;;;;;1.40;1.10;;;25.20;99.90;;;;;;5055143;28;20199;-66
2022/07/05 09:16:50;;;;;;;1.08;1.00;;;25.50;99.90;;;;;;5055797;28;20199;-67
2022/07/05 09:19:16;;;;;;;1.08;0.73;;;25.60;99.90;;;;;;5049036;28;20307;-66
2022/07/05 09:21:43;;;;;;;0.80;0.80;;;25.80;99.90;;;;;;5055690;28;20204;-66
2022/07/05 09:24:11;;;;;;;1.45;1.02;;;25.80;99.90;;;;;;5046573;28;20680;-67
2022/07/05 09:26:40;;;;;;;1.30;0.90;;;25.90;99.90;;;;;;5055688;28;20317;-65
2022/07/05 09:29:09;;;;;;;0.77;0.77;;;25.80;99.90;;;;;;5054858;28;20521;-66
2022/07/05 09:31:37;;;;;;;1.02;0.85;;;25.90;99.90;;;;;;5052105;28;20298;-66
2022/07/05 09:34:07;;;;;;;1.05;0.90;;;26.10;99.90;;;;;;5049669;28;20235;-64
2022/07/05 09:36:54;;;;;;;0.90;0.90;;;26.10;99.90;;;;;;5051814;28;20210;-66
2022/07/05 09:39:36;;;;;;;0.68;0.68;;;26.10;99.90;;;;;;5051175;28;20250;-65
2022/07/05 09:42:19;;;;;;;1.40;0.90;;;26.40;99.90;;;;;;5047012;28;20203;-66
2022/07/05 09:44:49;;;;;;;0.77;0.77;;;26.60;99.90;;;;;;5054504;28;20199;-65
2022/07/05 09:47:17;;;;;;;0.70;0.70;;;26.70;99.90;;;;;;5054786;28;20206;-65
2022/07/05 09:49:48;;;;;;;0.73;0.73;;;26.40;99.90;;;;;;5054063;28;20557;-67
2022/07/05 09:52:28;;;;;;;1.60;0.90;;;26.40;99.90;;;;;;5055146;28;20285;-64
2022/07/05 09:55:05;;;;;;;0.77;0.77;;;26.20;99.90;;;;;;5050470;28;20204;-64
2022/07/05 09:57:33;;;;;;;0.60;0.60;;;26.40;99.90;;;;;;5050780;28;20200;-66
2022/07/05 10:00:02;;;;;;;1.58;0.80;;;26.40;99.90;;;;;;5053372;28;20234;-66
2022/07/05 10:02:36;;;;;;;2.35;0.60;;;26.40;99.90;;;;;;5054705;28;20235;-65
2022/07/05 10:05:12;;;;;;;0.63;0.63;;;26.60;99.90;;;;;;5055070;28;20294;-66
2022/07/05 10:07:41;;;;;;;0.70;0.70;;;26.80;99.90;;;;;;5053910;28;20286;-70
2022/07/05 10:10:09;;;;;;;0.88;0.88;;;27.10;99.90;;;;;;5054139;28;20259;-66
2022/07/05 10:12:37;;;;;;;1.67;1.00;;;26.90;99.90;;;;;;5055006;28;20227;-65
2022/07/05 10:15:06;;;;;;;0.93;0.80;;;26.80;99.90;;;;;;5053322;28;20203;-66
2022/07/05 10:17:37;;;;;;;0.60;0.60;;;26.80;99.90;;;;;;5058983;28;20196;-64
2022/07/05 10:20:09;;;;;;;0.73;0.73;;;26.80;99.90;;;;;;5048571;28;20224;-69
2022/07/05 10:22:38;;;;;;;0.95;0.73;;;26.90;99.90;;;;;;5045852;28;20841;-65
2022/07/05 10:25:06;;;;;;;1.23;1.05;;;26.50;99.90;;;;;;5048754;28;20287;-66
2022/07/05 10:27:35;;;;;;;1.10;1.10;;;26.50;99.90;;;;;;5054124;28;20627;-65
2022/07/05 10:30:04;;;;;;;0.82;0.82;;;26.70;99.90;;;;;;5053134;28;20234;-66
2022/07/05 10:32:31;;;;;;;0.80;0.80;;;26.70;99.90;;;;;;5054084;28;20220;-68
2022/07/05 10:34:59;;;;;;;2.55;0.85;;;26.60;99.90;;;;;;5055036;28;20302;-65
2022/07/05 10:37:28;;;;;;;0.68;0.68;;;26.50;99.90;;;;;;5051969;28;20291;-65
2022/07/05 10:39:57;;;;;;;0.93;0.90;;;26.70;99.90;;;;;;5054532;28;20224;-66
2022/07/05 10:42:27;;;;;;;0.77;0.77;;;26.80;99.90;;;;;;5052597;28;20654;-65
2022/07/05 10:44:54;;;;;;;1.77;1.00;;;26.90;99.90;;;;;;5052106;28;20232;-64
2022/07/05 10:47:21;;;;;;;0.70;0.70;;;26.90;99.90;;;;;;5072979;28;20235;-70
2022/07/05 10:50:01;;;;;;;1.17;0.80;;;27.00;99.90;;;;;;5057426;28;20252;-66
2022/07/05 10:52:28;;;;;;;0.80;0.80;;;27.30;99.90;;;;;;5069143;28;20212;-66
2022/07/05 10:55:23;;;;;;;0.70;0.70;;;27.30;99.90;;;;;;5073142;28;20211;-66
2022/07/05 10:58:31;;;;;;;0.68;0.68;;;27.50;99.90;;;;;;5067153;28;20661;-66
2022/07/05 11:01:32;;;;;;;0.88;0.88;;;27.50;99.90;;;;;;5058685;28;20616;-67
2022/07/05 11:04:23;;;;;;;0.75;0.75;;;27.50;99.90;;;;;;5063283;28;20227;-69
2022/07/05 11:06:50;;;;;;;1.92;0.95;;;27.50;99.90;;;;;;5054082;28;20227;-65
2022/07/05 11:09:19;;;;;;;0.60;0.60;;;27.70;99.90;;;;;;5061874;28;20646;-68
2022/07/05 11:12:02;;;;;;;0.80;0.70;;;27.80;99.90;;;;;;5066137;28;20228;-65
2022/07/05 11:14:34;;;;;;;0.80;0.80;;;27.80;99.90;;;;;;5069569;28;20188;-66
2022/07/05 11:17:25;;;;;;;0.80;0.80;;;28.10;99.90;;;;;;5063085;28;20200;-66
2022/07/05 11:20:08;;;;;;;0.60;0.60;;;28.20;99.90;;;;;;5053484;28;20732;-66
2022/07/05 11:22:36;;;;;;;0.82;0.70;;;28.30;99.90;;;;;;5049810;28;20235;-65
2022/07/05 11:25:05;;;;;;;0.93;0.93;;;28.30;99.90;;;;;;5053958;28;20287;-66
2022/07/05 11:27:34;;;;;;;1.90;0.90;;;28.40;99.90;;;;;;5052918;28;20211;-67
2022/07/05 11:30:01;;;;;;;0.60;0.60;;;28.50;99.90;;;;;;5051929;28;20220;-67
2022/07/05 11:32:38;;;;;;;0.65;0.65;;;28.40;99.90;;;;;;5051501;28;20365;-67
2022/07/05 11:35:19;;;;;;;0.50;0.50;;;28.40;99.90;;;;;;5053344;28;20231;-64
2022/07/05 11:38:00;;;;;;;0.60;0.60;;;28.50;99.90;;;;;;5050471;28;20601;-66
2022/07/05 11:40:30;;;;;;;0.73;0.73;;;28.70;99.90;;;;;;5054402;28;20203;-65
2022/07/05 11:42:59;;;;;;;0.50;0.50;;;28.80;99.90;;;;;;5054865;28;20203;-66
2022/07/05 11:45:26;;;;;;;0.70;0.70;;;29.00;99.90;;;;;;5053628;28;20620;-66
2022/07/05 11:47:56;;;;;;;0.70;0.70;;;29.10;99.90;;;;;;5051823;28;20295;-66
2022/07/05 11:50:28;;;;;;;0.68;0.68;;;29.10;99.90;;;;;;5053140;28;20202;-66
2022/07/05 11:52:55;;;;;;;0.55;0.55;;;29.10;99.90;;;;;;5047820;28;20226;-66
2022/07/05 11:55:25;;;;;;;0.80;0.80;;;28.60;99.90;;;;;;5047335;28;20200;-66
2022/07/05 11:57:54;;;;;;;0.50;0.50;;;28.30;99.90;;;;;;5045888;28;20662;-66
2022/07/05 12:00:30;;;;;;;0.60;0.60;;;28.20;99.90;;;;;;5052317;28;20211;-67
2022/07/05 12:02:57;;;;;;;0.65;0.65;;;28.40;99.90;;;;;;5050740;28;20242;-68
2022/07/05 12:05:24;;;;;;;0.63;0.63;;;28.40;99.90;;;;;;5052627;28;20236;-66
2022/07/05 12:07:52;;;;;;;2.00;0.70;;;28.50;99.90;;;;;;5051836;28;20215;-65
2022/07/05 12:13:06;;;;;;;1.38;0.80;;;28.70;99.90;;;;;;5045423;28;20591;-65
2022/07/05 12:15:35;;;;;;;0.60;0.60;;;28.80;99.90;;;;;;5046668;28;20207;-66
2022/07/05 12:18:04;;;;;;;0.50;0.50;;;28.80;99.90;;;;;;5049770;28;20339;-65
2022/07/05 12:20:32;;;;;;;0.70;0.70;;;28.90;99.90;;;;;;5047135;28;20208;-65
2022/07/05 12:23:00;;;;;;;0.85;0.60;;;28.90;99.90;;;;;;5043217;28;20647;-66
2022/07/05 12:25:28;;;;;;;0.70;0.70;;;29.00;99.90;;;;;;5049878;28;20200;-65
2022/07/05 12:27:57;;;;;;;0.80;0.80;;;28.70;99.90;;;;;;5046140;28;20635;-65
2022/07/05 12:30:24;;;;;;;0.80;0.80;;;28.80;99.90;;;;;;5056142;28;20253;-65
2022/07/05 12:32:57;;;;;;;0.70;0.70;;;28.80;99.90;;;;;;5053476;28;20724;-66
2022/07/05 12:35:32;;;;;;;0.57;0.57;;;29.20;99.90;;;;;;5050947;28;20236;-66
2022/07/05 12:38:08;;;;;;;0.65;0.65;;;29.30;99.90;;;;;;5042346;28;20238;-66
2022/07/05 12:40:35;;;;;;;0.80;0.80;;;29.60;99.90;;;;;;5052212;28;20234;-65
2022/07/05 12:43:04;;;;;;;1.27;1.27;;;29.60;99.80;;;;;;5056019;28;20239;-66
2022/07/05 12:45:32;;;;;;;1.52;0.88;;;29.60;99.90;;;;;;5055862;28;20724;-65
2022/07/05 12:48:02;;;;;;;0.60;0.60;;;29.60;99.90;;;;;;5060819;28;20731;-66
2022/07/05 12:50:31;;;;;;;0.57;0.57;;;29.50;98.80;;;;;;5056386;28;20207;-66
2022/07/05 12:58:01;;;;;;;0.60;0.60;;;29.30;98.80;;;;;;5054441;28;20222;-67
2022/07/05 12:58:47;;;;;;;0.60;0.60;;;29.10;98.30;;;;;;5057269;28;20518;-66
2022/07/05 13:01:21;;;;;;;0.73;0.70;;;29.30;97.60;;;;;;5071163;28;20199;-67
2022/07/05 13:04:03;;;;;;;0.50;0.50;;;29.50;97.40;;;;;;5071601;28;20250;-66
2022/07/05 13:06:48;;;;;;;0.50;0.50;;;29.50;97.40;;;;;;5066469;28;20200;-66
2022/07/05 13:09:16;;;;;;;0.50;0.50;;;29.60;96.60;;;;;;5050024;28;20741;-69
2022/07/05 13:11:44;;;;;;;0.70;0.70;;;29.80;97.60;;;;;;5056263;28;20231;-69
2022/07/05 13:14:10;;;;;;;0.70;0.68;;;30.00;97.70;;;;;;5056168;28;20253;-67